sensor_id;sensor_type;location;lat;lon;timestamp;P1;durP1;ratioP1;P2;durP2;ratioP2
40781;SDS011;26493;51.938;7.626;2023-03-12T00:00:28;23.58;;;14.15;;
40781;SDS011;26493;51.938;7.626;2023-03-12T00:02:54;21.40;;;12.43;;
40781;SDS011;26493;51.938;7.626;2023-03-12T00:05:20;22.98;;;13.43;;
40781;SDS011;26493;51.938;7.626;2023-03-12T00:07:47;22.63;;;13.10;;
40781;SDS011;26493;51.938;7.626;2023-03-12T00:10:13;21.25;;;12.52;;
40781;SDS011;26493;51.938;7.626;2023-03-12T00:12:39;21.77;;;12.85;;
40781;SDS011;26493;51.938;7.626;2023-03-12T00:15:05;23.75;;;12.82;;
40781;SDS011;26493;51.938;7.626;2023-03-12T00:17:31;23.73;;;13.05;;
40781;SDS011;26493;51.938;7.626;2023-03-12T00:19:57;22.92;;;12.43;;
40781;SDS011;26493;51.938;7.626;2023-03-12T00:22:23;21.05;;;11.63;;
40781;SDS011;26493;51.938;7.626;2023-03-12T00:24:53;20.65;;;12.07;;
40781;SDS011;26493;51.938;7.626;2023-03-12T00:27:20;23.33;;;13.30;;
40781;SDS011;26493;51.938;7.626;2023-03-12T00:29:46;20.50;;;11.85;;
40781;SDS011;26493;51.938;7.626;2023-03-12T00:32:12;19.55;;;11.43;;
40781;SDS011;26493;51.938;7.626;2023-03-12T00:34:39;20.85;;;11.93;;
40781;SDS011;26493;51.938;7.626;2023-03-12T00:37:05;21.73;;;11.18;;
40781;SDS011;26493;51.938;7.626;2023-03-12T00:39:32;19.38;;;10.85;;
40781;SDS011;26493;51.938;7.626;2023-03-12T00:41:58;19.23;;;10.48;;
40781;SDS011;26493;51.938;7.626;2023-03-12T00:44:24;21.35;;;10.73;;
40781;SDS011;26493;51.938;7.626;2023-03-12T00:46:50;18.98;;;10.93;;
40781;SDS011;26493;51.938;7.626;2023-03-12T00:49:16;18.65;;;10.27;;
40781;SDS011;26493;51.938;7.626;2023-03-12T00:51:42;17.63;;;10.45;;
40781;SDS011;26493;51.938;7.626;2023-03-12T00:54:08;17.92;;;10.90;;
40781;SDS011;26493;51.938;7.626;2023-03-12T00:56:34;18.58;;;10.20;;
40781;SDS011;26493;51.938;7.626;2023-03-12T00:59:00;19.88;;;10.27;;
40781;SDS011;26493;51.938;7.626;2023-03-12T01:01:26;19.05;;;10.70;;
40781;SDS011;26493;51.938;7.626;2023-03-12T01:03:52;24.05;;;10.52;;
40781;SDS011;26493;51.938;7.626;2023-03-12T01:06:18;19.55;;;10.00;;
40781;SDS011;26493;51.938;7.626;2023-03-12T01:08:45;18.55;;;10.90;;
40781;SDS011;26493;51.938;7.626;2023-03-12T01:11:12;19.40;;;9.93;;
40781;SDS011;26493;51.938;7.626;2023-03-12T01:13:38;20.23;;;9.95;;
40781;SDS011;26493;51.938;7.626;2023-03-12T01:16:04;28.05;;;12.30;;
40781;SDS011;26493;51.938;7.626;2023-03-12T01:18:30;19.85;;;10.05;;
40781;SDS011;26493;51.938;7.626;2023-03-12T01:20:56;19.92;;;9.98;;
40781;SDS011;26493;51.938;7.626;2023-03-12T01:23:23;19.13;;;10.38;;
40781;SDS011;26493;51.938;7.626;2023-03-12T01:25:49;24.13;;;10.70;;
40781;SDS011;26493;51.938;7.626;2023-03-12T01:28:16;19.38;;;10.13;;
40781;SDS011;26493;51.938;7.626;2023-03-12T01:30:42;21.65;;;10.13;;
40781;SDS011;26493;51.938;7.626;2023-03-12T01:33:08;18.45;;;10.05;;
40781;SDS011;26493;51.938;7.626;2023-03-12T01:35:36;20.42;;;11.27;;
40781;SDS011;26493;51.938;7.626;2023-03-12T01:38:03;23.48;;;11.57;;
40781;SDS011;26493;51.938;7.626;2023-03-12T01:40:29;18.02;;;10.68;;
40781;SDS011;26493;51.938;7.626;2023-03-12T01:42:57;19.02;;;9.50;;
40781;SDS011;26493;51.938;7.626;2023-03-12T01:48:08;20.55;;;10.68;;
40781;SDS011;26493;51.938;7.626;2023-03-12T01:50:34;18.35;;;10.38;;
40781;SDS011;26493;51.938;7.626;2023-03-12T01:53:00;20.40;;;9.88;;
40781;SDS011;26493;51.938;7.626;2023-03-12T01:55:27;20.23;;;9.98;;
40781;SDS011;26493;51.938;7.626;2023-03-12T01:57:54;19.35;;;11.45;;
40781;SDS011;26493;51.938;7.626;2023-03-12T02:00:24;19.80;;;10.32;;
40781;SDS011;26493;51.938;7.626;2023-03-12T02:02:51;21.95;;;11.60;;
40781;SDS011;26493;51.938;7.626;2023-03-12T02:05:29;19.65;;;10.32;;
40781;SDS011;26493;51.938;7.626;2023-03-12T02:07:58;21.48;;;10.68;;
40781;SDS011;26493;51.938;7.626;2023-03-12T02:10:24;19.42;;;10.23;;
40781;SDS011;26493;51.938;7.626;2023-03-12T02:12:50;19.05;;;9.93;;
40781;SDS011;26493;51.938;7.626;2023-03-12T02:15:16;18.13;;;10.43;;
40781;SDS011;26493;51.938;7.626;2023-03-12T02:17:42;18.17;;;9.88;;
40781;SDS011;26493;51.938;7.626;2023-03-12T02:22:38;17.30;;;9.25;;
40781;SDS011;26493;51.938;7.626;2023-03-12T02:27:50;17.58;;;9.48;;
40781;SDS011;26493;51.938;7.626;2023-03-12T02:30:16;20.98;;;9.95;;
40781;SDS011;26493;51.938;7.626;2023-03-12T02:32:42;19.15;;;9.80;;
40781;SDS011;26493;51.938;7.626;2023-03-12T02:35:10;20.75;;;10.95;;
40781;SDS011;26493;51.938;7.626;2023-03-12T02:37:45;22.30;;;9.98;;
40781;SDS011;26493;51.938;7.626;2023-03-12T02:40:17;18.08;;;9.57;;
40781;SDS011;26493;51.938;7.626;2023-03-12T02:42:47;19.52;;;10.20;;
40781;SDS011;26493;51.938;7.626;2023-03-12T02:45:13;17.20;;;9.93;;
40781;SDS011;26493;51.938;7.626;2023-03-12T02:47:39;19.45;;;9.35;;
40781;SDS011;26493;51.938;7.626;2023-03-12T02:50:05;24.23;;;11.00;;
40781;SDS011;26493;51.938;7.626;2023-03-12T02:52:31;18.98;;;11.20;;
40781;SDS011;26493;51.938;7.626;2023-03-12T02:55:00;18.10;;;10.05;;
40781;SDS011;26493;51.938;7.626;2023-03-12T02:57:26;19.30;;;10.10;;
40781;SDS011;26493;51.938;7.626;2023-03-12T02:59:52;19.02;;;10.63;;
40781;SDS011;26493;51.938;7.626;2023-03-12T03:02:18;20.65;;;10.85;;
40781;SDS011;26493;51.938;7.626;2023-03-12T03:04:44;21.00;;;11.07;;
40781;SDS011;26493;51.938;7.626;2023-03-12T03:07:11;20.02;;;10.70;;
40781;SDS011;26493;51.938;7.626;2023-03-12T03:09:38;18.98;;;10.27;;
40781;SDS011;26493;51.938;7.626;2023-03-12T03:12:04;20.85;;;10.68;;
40781;SDS011;26493;51.938;7.626;2023-03-12T03:14:31;20.10;;;11.23;;
40781;SDS011;26493;51.938;7.626;2023-03-12T03:16:57;18.60;;;10.63;;
40781;SDS011;26493;51.938;7.626;2023-03-12T03:19:22;18.10;;;9.93;;
40781;SDS011;26493;51.938;7.626;2023-03-12T03:21:48;21.67;;;10.65;;
40781;SDS011;26493;51.938;7.626;2023-03-12T03:24:14;17.23;;;9.68;;
40781;SDS011;26493;51.938;7.626;2023-03-12T03:26:41;20.00;;;11.18;;
40781;SDS011;26493;51.938;7.626;2023-03-12T03:29:07;18.42;;;10.90;;
40781;SDS011;26493;51.938;7.626;2023-03-12T03:31:33;23.33;;;11.40;;
40781;SDS011;26493;51.938;7.626;2023-03-12T03:33:59;19.98;;;10.80;;
40781;SDS011;26493;51.938;7.626;2023-03-12T03:36:25;19.48;;;10.60;;
40781;SDS011;26493;51.938;7.626;2023-03-12T03:38:51;20.25;;;10.73;;
40781;SDS011;26493;51.938;7.626;2023-03-12T03:41:17;17.83;;;10.70;;
40781;SDS011;26493;51.938;7.626;2023-03-12T03:43:43;17.73;;;10.60;;
40781;SDS011;26493;51.938;7.626;2023-03-12T03:46:10;20.63;;;11.23;;
40781;SDS011;26493;51.938;7.626;2023-03-12T03:48:37;18.92;;;10.15;;
40781;SDS011;26493;51.938;7.626;2023-03-12T03:51:03;19.05;;;10.57;;
40781;SDS011;26493;51.938;7.626;2023-03-12T03:53:30;19.65;;;10.35;;
40781;SDS011;26493;51.938;7.626;2023-03-12T03:55:56;20.85;;;10.95;;
40781;SDS011;26493;51.938;7.626;2023-03-12T03:58:22;18.63;;;10.63;;
40781;SDS011;26493;51.938;7.626;2023-03-12T04:00:48;20.13;;;10.30;;
40781;SDS011;26493;51.938;7.626;2023-03-12T04:03:15;17.25;;;9.32;;
40781;SDS011;26493;51.938;7.626;2023-03-12T04:05:41;19.75;;;10.48;;
40781;SDS011;26493;51.938;7.626;2023-03-12T04:08:10;18.23;;;10.57;;
40781;SDS011;26493;51.938;7.626;2023-03-12T04:10:37;16.67;;;9.05;;
40781;SDS011;26493;51.938;7.626;2023-03-12T04:13:03;18.42;;;10.00;;
40781;SDS011;26493;51.938;7.626;2023-03-12T04:15:29;16.90;;;9.82;;
40781;SDS011;26493;51.938;7.626;2023-03-12T04:17:55;19.15;;;10.65;;
40781;SDS011;26493;51.938;7.626;2023-03-12T04:20:21;21.30;;;10.55;;
40781;SDS011;26493;51.938;7.626;2023-03-12T04:22:47;17.33;;;10.32;;
40781;SDS011;26493;51.938;7.626;2023-03-12T04:25:13;18.33;;;9.57;;
40781;SDS011;26493;51.938;7.626;2023-03-12T04:27:39;18.02;;;10.02;;
40781;SDS011;26493;51.938;7.626;2023-03-12T04:30:05;19.92;;;10.98;;
40781;SDS011;26493;51.938;7.626;2023-03-12T04:32:31;16.83;;;9.80;;
40781;SDS011;26493;51.938;7.626;2023-03-12T04:34:57;17.27;;;9.40;;
40781;SDS011;26493;51.938;7.626;2023-03-12T04:37:23;17.83;;;9.52;;
40781;SDS011;26493;51.938;7.626;2023-03-12T04:39:49;17.85;;;10.52;;
40781;SDS011;26493;51.938;7.626;2023-03-12T04:42:15;17.63;;;10.02;;
40781;SDS011;26493;51.938;7.626;2023-03-12T04:44:41;18.05;;;11.02;;
40781;SDS011;26493;51.938;7.626;2023-03-12T04:47:07;18.65;;;9.95;;
40781;SDS011;26493;51.938;7.626;2023-03-12T04:49:33;18.30;;;9.88;;
40781;SDS011;26493;51.938;7.626;2023-03-12T04:51:59;18.85;;;10.88;;
40781;SDS011;26493;51.938;7.626;2023-03-12T04:54:25;17.33;;;9.63;;
40781;SDS011;26493;51.938;7.626;2023-03-12T04:56:51;17.45;;;9.50;;
40781;SDS011;26493;51.938;7.626;2023-03-12T04:59:17;17.60;;;10.20;;
40781;SDS011;26493;51.938;7.626;2023-03-12T05:01:43;18.05;;;9.52;;
40781;SDS011;26493;51.938;7.626;2023-03-12T05:04:09;18.55;;;10.93;;
40781;SDS011;26493;51.938;7.626;2023-03-12T05:06:35;18.23;;;10.10;;
40781;SDS011;26493;51.938;7.626;2023-03-12T05:09:01;19.45;;;9.23;;
40781;SDS011;26493;51.938;7.626;2023-03-12T05:11:27;17.50;;;9.57;;
40781;SDS011;26493;51.938;7.626;2023-03-12T05:13:54;16.48;;;8.60;;
40781;SDS011;26493;51.938;7.626;2023-03-12T05:16:20;16.90;;;8.93;;
40781;SDS011;26493;51.938;7.626;2023-03-12T05:18:46;19.15;;;9.70;;
40781;SDS011;26493;51.938;7.626;2023-03-12T05:21:13;16.77;;;8.77;;
40781;SDS011;26493;51.938;7.626;2023-03-12T05:23:39;16.38;;;9.40;;
40781;SDS011;26493;51.938;7.626;2023-03-12T05:26:17;18.20;;;9.23;;
40781;SDS011;26493;51.938;7.626;2023-03-12T05:28:43;16.55;;;8.90;;
40781;SDS011;26493;51.938;7.626;2023-03-12T05:31:10;18.27;;;8.82;;
40781;SDS011;26493;51.938;7.626;2023-03-12T05:33:36;18.92;;;9.20;;
40781;SDS011;26493;51.938;7.626;2023-03-12T05:36:02;17.75;;;9.30;;
40781;SDS011;26493;51.938;7.626;2023-03-12T05:38:28;17.17;;;9.02;;
40781;SDS011;26493;51.938;7.626;2023-03-12T05:40:56;18.98;;;9.52;;
40781;SDS011;26493;51.938;7.626;2023-03-12T05:43:23;17.15;;;9.20;;
40781;SDS011;26493;51.938;7.626;2023-03-12T05:45:49;17.35;;;8.80;;
40781;SDS011;26493;51.938;7.626;2023-03-12T05:48:15;17.05;;;9.10;;
40781;SDS011;26493;51.938;7.626;2023-03-12T05:50:41;17.40;;;9.02;;
40781;SDS011;26493;51.938;7.626;2023-03-12T05:53:08;17.48;;;9.10;;
40781;SDS011;26493;51.938;7.626;2023-03-12T05:55:34;15.32;;;8.18;;
40781;SDS011;26493;51.938;7.626;2023-03-12T05:58:01;19.42;;;9.07;;
40781;SDS011;26493;51.938;7.626;2023-03-12T06:00:27;17.65;;;8.73;;
40781;SDS011;26493;51.938;7.626;2023-03-12T06:02:53;16.83;;;9.02;;
40781;SDS011;26493;51.938;7.626;2023-03-12T06:05:19;17.17;;;8.38;;
40781;SDS011;26493;51.938;7.626;2023-03-12T06:07:45;14.13;;;7.93;;
40781;SDS011;26493;51.938;7.626;2023-03-12T06:10:11;17.55;;;8.65;;
40781;SDS011;26493;51.938;7.626;2023-03-12T06:15:06;15.38;;;8.10;;
40781;SDS011;26493;51.938;7.626;2023-03-12T06:17:33;17.50;;;8.70;;
40781;SDS011;26493;51.938;7.626;2023-03-12T06:19:59;15.48;;;8.20;;
40781;SDS011;26493;51.938;7.626;2023-03-12T06:22:25;16.45;;;8.63;;
40781;SDS011;26493;51.938;7.626;2023-03-12T06:24:51;15.88;;;8.55;;
40781;SDS011;26493;51.938;7.626;2023-03-12T06:27:17;18.02;;;7.93;;
40781;SDS011;26493;51.938;7.626;2023-03-12T06:29:43;17.98;;;9.20;;
40781;SDS011;26493;51.938;7.626;2023-03-12T06:32:11;17.20;;;8.70;;
40781;SDS011;26493;51.938;7.626;2023-03-12T06:34:37;15.68;;;8.10;;
40781;SDS011;26493;51.938;7.626;2023-03-12T06:37:03;17.08;;;8.38;;
40781;SDS011;26493;51.938;7.626;2023-03-12T06:39:29;17.77;;;8.40;;
40781;SDS011;26493;51.938;7.626;2023-03-12T06:41:55;18.67;;;8.50;;
40781;SDS011;26493;51.938;7.626;2023-03-12T06:44:21;17.85;;;8.48;;
40781;SDS011;26493;51.938;7.626;2023-03-12T06:46:47;16.33;;;8.25;;
40781;SDS011;26493;51.938;7.626;2023-03-12T06:49:13;15.48;;;8.35;;
40781;SDS011;26493;51.938;7.626;2023-03-12T06:51:39;16.38;;;8.05;;
40781;SDS011;26493;51.938;7.626;2023-03-12T06:54:05;18.20;;;8.25;;
40781;SDS011;26493;51.938;7.626;2023-03-12T06:56:31;19.23;;;8.52;;
40781;SDS011;26493;51.938;7.626;2023-03-12T06:58:57;16.92;;;8.32;;
40781;SDS011;26493;51.938;7.626;2023-03-12T07:01:24;16.05;;;8.40;;
40781;SDS011;26493;51.938;7.626;2023-03-12T07:03:50;16.02;;;8.88;;
40781;SDS011;26493;51.938;7.626;2023-03-12T07:06:20;19.83;;;8.95;;
40781;SDS011;26493;51.938;7.626;2023-03-12T07:08:46;15.45;;;8.30;;
40781;SDS011;26493;51.938;7.626;2023-03-12T07:11:13;17.50;;;8.23;;
40781;SDS011;26493;51.938;7.626;2023-03-12T07:13:39;14.80;;;7.82;;
40781;SDS011;26493;51.938;7.626;2023-03-12T07:16:05;15.63;;;8.27;;
40781;SDS011;26493;51.938;7.626;2023-03-12T07:18:32;18.30;;;8.60;;
40781;SDS011;26493;51.938;7.626;2023-03-12T07:20:58;16.90;;;8.10;;
40781;SDS011;26493;51.938;7.626;2023-03-12T07:23:24;17.65;;;7.65;;
40781;SDS011;26493;51.938;7.626;2023-03-12T07:25:50;16.52;;;8.00;;
40781;SDS011;26493;51.938;7.626;2023-03-12T07:28:17;16.80;;;7.80;;
40781;SDS011;26493;51.938;7.626;2023-03-12T07:30:43;15.73;;;7.80;;
40781;SDS011;26493;51.938;7.626;2023-03-12T07:33:15;15.73;;;7.80;;
40781;SDS011;26493;51.938;7.626;2023-03-12T07:35:41;14.35;;;7.50;;
40781;SDS011;26493;51.938;7.626;2023-03-12T07:38:07;16.05;;;7.63;;
40781;SDS011;26493;51.938;7.626;2023-03-12T07:40:34;16.63;;;7.95;;
40781;SDS011;26493;51.938;7.626;2023-03-12T07:43:00;15.35;;;7.60;;
40781;SDS011;26493;51.938;7.626;2023-03-12T07:45:26;18.58;;;7.63;;
40781;SDS011;26493;51.938;7.626;2023-03-12T07:47:52;19.80;;;9.02;;
40781;SDS011;26493;51.938;7.626;2023-03-12T07:50:18;14.82;;;7.63;;
40781;SDS011;26493;51.938;7.626;2023-03-12T07:52:45;16.38;;;7.60;;
40781;SDS011;26493;51.938;7.626;2023-03-12T07:55:11;16.75;;;7.40;;
40781;SDS011;26493;51.938;7.626;2023-03-12T07:57:37;16.33;;;8.68;;
40781;SDS011;26493;51.938;7.626;2023-03-12T08:00:04;15.18;;;7.82;;
40781;SDS011;26493;51.938;7.626;2023-03-12T08:02:32;15.73;;;7.70;;
40781;SDS011;26493;51.938;7.626;2023-03-12T08:04:58;15.57;;;7.70;;
40781;SDS011;26493;51.938;7.626;2023-03-12T08:07:24;18.08;;;8.15;;
40781;SDS011;26493;51.938;7.626;2023-03-12T08:09:56;14.63;;;8.30;;
40781;SDS011;26493;51.938;7.626;2023-03-12T08:12:22;15.30;;;8.00;;
40781;SDS011;26493;51.938;7.626;2023-03-12T08:14:47;17.10;;;7.75;;
40781;SDS011;26493;51.938;7.626;2023-03-12T08:17:13;16.00;;;7.72;;
40781;SDS011;26493;51.938;7.626;2023-03-12T08:19:39;17.55;;;8.63;;
40781;SDS011;26493;51.938;7.626;2023-03-12T08:22:06;16.02;;;8.18;;
40781;SDS011;26493;51.938;7.626;2023-03-12T08:24:32;14.93;;;8.20;;
40781;SDS011;26493;51.938;7.626;2023-03-12T08:26:59;20.83;;;9.05;;
40781;SDS011;26493;51.938;7.626;2023-03-12T08:29:25;14.93;;;8.70;;
40781;SDS011;26493;51.938;7.626;2023-03-12T08:31:51;16.13;;;8.65;;
40781;SDS011;26493;51.938;7.626;2023-03-12T08:34:17;17.85;;;9.25;;
40781;SDS011;26493;51.938;7.626;2023-03-12T08:36:43;18.85;;;9.25;;
40781;SDS011;26493;51.938;7.626;2023-03-12T08:39:09;16.42;;;9.20;;
40781;SDS011;26493;51.938;7.626;2023-03-12T08:41:35;17.75;;;9.77;;
40781;SDS011;26493;51.938;7.626;2023-03-12T08:44:01;16.48;;;10.30;;
40781;SDS011;26493;51.938;7.626;2023-03-12T08:46:27;16.33;;;10.80;;
40781;SDS011;26493;51.938;7.626;2023-03-12T08:48:53;16.35;;;11.02;;
40781;SDS011;26493;51.938;7.626;2023-03-12T08:51:19;19.75;;;12.25;;
40781;SDS011;26493;51.938;7.626;2023-03-12T08:53:45;18.42;;;11.15;;
40781;SDS011;26493;51.938;7.626;2023-03-12T08:56:12;17.35;;;12.05;;
40781;SDS011;26493;51.938;7.626;2023-03-12T08:58:38;18.40;;;11.82;;
40781;SDS011;26493;51.938;7.626;2023-03-12T09:01:07;16.88;;;11.77;;
40781;SDS011;26493;51.938;7.626;2023-03-12T09:03:33;18.17;;;11.90;;
40781;SDS011;26493;51.938;7.626;2023-03-12T09:06:04;18.77;;;11.77;;
40781;SDS011;26493;51.938;7.626;2023-03-12T09:08:30;20.00;;;12.43;;
40781;SDS011;26493;51.938;7.626;2023-03-12T09:10:58;17.02;;;12.13;;
40781;SDS011;26493;51.938;7.626;2023-03-12T09:13:24;18.63;;;11.90;;
40781;SDS011;26493;51.938;7.626;2023-03-12T09:15:50;17.60;;;12.57;;
40781;SDS011;26493;51.938;7.626;2023-03-12T09:18:16;18.13;;;12.60;;
40781;SDS011;26493;51.938;7.626;2023-03-12T09:20:44;19.20;;;13.05;;
40781;SDS011;26493;51.938;7.626;2023-03-12T09:23:10;17.50;;;11.98;;
40781;SDS011;26493;51.938;7.626;2023-03-12T09:25:36;18.88;;;11.95;;
40781;SDS011;26493;51.938;7.626;2023-03-12T09:28:02;19.10;;;13.05;;
40781;SDS011;26493;51.938;7.626;2023-03-12T09:30:28;17.98;;;12.52;;
40781;SDS011;26493;51.938;7.626;2023-03-12T09:32:55;17.60;;;11.90;;
40781;SDS011;26493;51.938;7.626;2023-03-12T09:35:22;17.80;;;12.10;;
40781;SDS011;26493;51.938;7.626;2023-03-12T09:37:48;20.10;;;12.25;;
40781;SDS011;26493;51.938;7.626;2023-03-12T09:40:16;17.30;;;12.38;;
40781;SDS011;26493;51.938;7.626;2023-03-12T09:45:17;17.27;;;12.00;;
40781;SDS011;26493;51.938;7.626;2023-03-12T09:47:49;18.88;;;12.25;;
40781;SDS011;26493;51.938;7.626;2023-03-12T09:52:44;20.38;;;12.00;;
40781;SDS011;26493;51.938;7.626;2023-03-12T09:55:12;19.70;;;11.77;;
40781;SDS011;26493;51.938;7.626;2023-03-12T09:57:39;19.95;;;12.45;;
40781;SDS011;26493;51.938;7.626;2023-03-12T10:00:07;22.48;;;13.77;;
40781;SDS011;26493;51.938;7.626;2023-03-12T10:05:06;19.67;;;14.50;;
40781;SDS011;26493;51.938;7.626;2023-03-12T10:07:35;19.52;;;14.00;;
40781;SDS011;26493;51.938;7.626;2023-03-12T10:15:35;19.08;;;14.52;;
40781;SDS011;26493;51.938;7.626;2023-03-12T10:26:06;25.63;;;16.27;;
40781;SDS011;26493;51.938;7.626;2023-03-12T10:31:46;24.60;;;16.92;;
40781;SDS011;26493;51.938;7.626;2023-03-12T10:34:14;24.58;;;17.20;;
40781;SDS011;26493;51.938;7.626;2023-03-12T10:39:15;23.05;;;17.80;;
40781;SDS011;26493;51.938;7.626;2023-03-12T10:41:42;22.63;;;17.90;;
40781;SDS011;26493;51.938;7.626;2023-03-12T10:44:10;22.42;;;18.20;;
40781;SDS011;26493;51.938;7.626;2023-03-12T10:52:32;23.55;;;18.30;;
40781;SDS011;26493;51.938;7.626;2023-03-12T10:54:40;26.50;;;19.65;;
40781;SDS011;26493;51.938;7.626;2023-03-12T10:57:09;23.38;;;18.73;;
40781;SDS011;26493;51.938;7.626;2023-03-12T10:59:36;24.95;;;20.13;;
40781;SDS011;26493;51.938;7.626;2023-03-12T11:04:51;23.48;;;17.85;;
40781;SDS011;26493;51.938;7.626;2023-03-12T11:09:43;24.95;;;19.50;;
40781;SDS011;26493;51.938;7.626;2023-03-12T11:12:23;26.38;;;19.95;;
40781;SDS011;26493;51.938;7.626;2023-03-12T11:14:50;26.13;;;19.63;;
40781;SDS011;26493;51.938;7.626;2023-03-12T11:17:20;23.75;;;19.58;;
40781;SDS011;26493;51.938;7.626;2023-03-12T11:19:46;26.00;;;20.38;;
40781;SDS011;26493;51.938;7.626;2023-03-12T11:22:12;25.42;;;20.02;;
40781;SDS011;26493;51.938;7.626;2023-03-12T11:25:02;26.95;;;22.13;;
40781;SDS011;26493;51.938;7.626;2023-03-12T11:30:02;27.48;;;24.52;;
40781;SDS011;26493;51.938;7.626;2023-03-12T11:32:31;27.08;;;24.17;;
40781;SDS011;26493;51.938;7.626;2023-03-12T11:37:47;29.17;;;24.52;;
40781;SDS011;26493;51.938;7.626;2023-03-12T11:42:52;28.00;;;25.10;;
40781;SDS011;26493;51.938;7.626;2023-03-12T11:58:24;31.52;;;27.55;;
40781;SDS011;26493;51.938;7.626;2023-03-12T12:01:10;33.10;;;29.13;;
40781;SDS011;26493;51.938;7.626;2023-03-12T12:14:52;31.65;;;27.30;;
40781;SDS011;26493;51.938;7.626;2023-03-12T12:19:53;31.75;;;28.33;;
40781;SDS011;26493;51.938;7.626;2023-03-12T12:27:28;30.88;;;27.58;;
40781;SDS011;26493;51.938;7.626;2023-03-12T12:40:02;32.42;;;28.70;;
40781;SDS011;26493;51.938;7.626;2023-03-12T12:42:32;36.47;;;31.42;;
40781;SDS011;26493;51.938;7.626;2023-03-12T12:47:35;32.80;;;28.42;;
40781;SDS011;26493;51.938;7.626;2023-03-12T12:50:03;36.15;;;32.17;;
40781;SDS011;26493;51.938;7.626;2023-03-12T12:52:29;35.60;;;31.77;;
40781;SDS011;26493;51.938;7.626;2023-03-12T13:00:12;37.97;;;34.17;;
40781;SDS011;26493;51.938;7.626;2023-03-12T13:02:40;40.85;;;36.65;;
40781;SDS011;26493;51.938;7.626;2023-03-12T13:05:25;41.53;;;37.13;;
40781;SDS011;26493;51.938;7.626;2023-03-12T13:07:52;39.88;;;35.88;;
40781;SDS011;26493;51.938;7.626;2023-03-12T13:10:37;41.50;;;35.75;;
40781;SDS011;26493;51.938;7.626;2023-03-12T13:13:11;41.88;;;36.97;;
40781;SDS011;26493;51.938;7.626;2023-03-12T13:15:39;36.78;;;32.83;;
40781;SDS011;26493;51.938;7.626;2023-03-12T13:18:23;41.15;;;36.72;;
40781;SDS011;26493;51.938;7.626;2023-03-12T13:23:20;39.33;;;35.20;;
40781;SDS011;26493;51.938;7.626;2023-03-12T13:31:32;41.75;;;37.15;;
40781;SDS011;26493;51.938;7.626;2023-03-12T13:33:46;42.45;;;37.85;;
40781;SDS011;26493;51.938;7.626;2023-03-12T13:39:01;39.63;;;35.35;;
40781;SDS011;26493;51.938;7.626;2023-03-12T13:49:35;42.78;;;36.90;;
40781;SDS011;26493;51.938;7.626;2023-03-12T13:54:34;44.95;;;37.80;;
40781;SDS011;26493;51.938;7.626;2023-03-12T13:57:09;44.38;;;37.25;;
40781;SDS011;26493;51.938;7.626;2023-03-12T13:59:35;44.22;;;38.03;;
40781;SDS011;26493;51.938;7.626;2023-03-12T14:02:12;41.03;;;36.03;;
40781;SDS011;26493;51.938;7.626;2023-03-12T14:04:40;42.80;;;36.25;;
40781;SDS011;26493;51.938;7.626;2023-03-12T14:07:29;44.38;;;37.22;;
40781;SDS011;26493;51.938;7.626;2023-03-12T14:12:45;42.75;;;37.35;;
40781;SDS011;26493;51.938;7.626;2023-03-12T14:15:20;40.22;;;35.40;;
40781;SDS011;26493;51.938;7.626;2023-03-12T14:17:59;38.60;;;33.80;;
40781;SDS011;26493;51.938;7.626;2023-03-12T14:20:26;41.45;;;34.75;;
40781;SDS011;26493;51.938;7.626;2023-03-12T14:22:53;43.05;;;35.83;;
40781;SDS011;26493;51.938;7.626;2023-03-12T14:25:34;36.88;;;29.58;;
40781;SDS011;26493;51.938;7.626;2023-03-12T14:28:01;41.25;;;30.83;;
40781;SDS011;26493;51.938;7.626;2023-03-12T14:30:46;34.25;;;26.92;;
40781;SDS011;26493;51.938;7.626;2023-03-12T14:33:13;37.35;;;27.98;;
40781;SDS011;26493;51.938;7.626;2023-03-12T14:35:44;35.53;;;28.73;;
40781;SDS011;26493;51.938;7.626;2023-03-12T14:38:15;35.38;;;26.15;;
40781;SDS011;26493;51.938;7.626;2023-03-12T14:43:18;37.78;;;27.02;;
40781;SDS011;26493;51.938;7.626;2023-03-12T14:45:45;35.88;;;25.70;;
40781;SDS011;26493;51.938;7.626;2023-03-12T14:48:10;32.50;;;24.15;;
40781;SDS011;26493;51.938;7.626;2023-03-12T14:50:38;33.58;;;25.13;;
40781;SDS011;26493;51.938;7.626;2023-03-12T14:55:58;31.75;;;23.63;;
40781;SDS011;26493;51.938;7.626;2023-03-12T14:58:25;30.98;;;24.42;;
40781;SDS011;26493;51.938;7.626;2023-03-12T15:01:02;33.78;;;24.98;;
40781;SDS011;26493;51.938;7.626;2023-03-12T15:03:28;36.33;;;25.90;;
40781;SDS011;26493;51.938;7.626;2023-03-12T15:05:55;31.08;;;23.27;;
40781;SDS011;26493;51.938;7.626;2023-03-12T15:08:21;33.28;;;24.17;;
40781;SDS011;26493;51.938;7.626;2023-03-12T15:10:49;34.05;;;24.70;;
40781;SDS011;26493;51.938;7.626;2023-03-12T15:13:16;27.55;;;22.50;;
40781;SDS011;26493;51.938;7.626;2023-03-12T15:15:45;32.08;;;23.23;;
40781;SDS011;26493;51.938;7.626;2023-03-12T15:18:12;29.17;;;23.08;;
40781;SDS011;26493;51.938;7.626;2023-03-12T15:20:40;30.13;;;23.43;;
40781;SDS011;26493;51.938;7.626;2023-03-12T15:23:06;35.92;;;24.63;;
40781;SDS011;26493;51.938;7.626;2023-03-12T15:25:34;29.00;;;22.90;;
40781;SDS011;26493;51.938;7.626;2023-03-12T15:30:27;36.25;;;24.20;;
40781;SDS011;26493;51.938;7.626;2023-03-12T15:33:03;29.25;;;22.45;;
40781;SDS011;26493;51.938;7.626;2023-03-12T15:35:29;34.97;;;24.73;;
40781;SDS011;26493;51.938;7.626;2023-03-12T15:37:56;31.38;;;24.80;;
40781;SDS011;26493;51.938;7.626;2023-03-12T15:40:23;33.65;;;23.17;;
40781;SDS011;26493;51.938;7.626;2023-03-12T15:42:49;32.05;;;21.15;;
40781;SDS011;26493;51.938;7.626;2023-03-12T15:47:42;27.77;;;19.70;;
40781;SDS011;26493;51.938;7.626;2023-03-12T15:50:15;34.20;;;18.75;;
40781;SDS011;26493;51.938;7.626;2023-03-12T15:52:56;26.20;;;17.75;;
40781;SDS011;26493;51.938;7.626;2023-03-12T15:55:23;28.67;;;17.15;;
40781;SDS011;26493;51.938;7.626;2023-03-12T15:57:53;28.05;;;17.65;;
40781;SDS011;26493;51.938;7.626;2023-03-12T16:02:59;32.30;;;18.20;;
40781;SDS011;26493;51.938;7.626;2023-03-12T16:05:26;28.88;;;15.57;;
40781;SDS011;26493;51.938;7.626;2023-03-12T16:10:21;26.88;;;15.57;;
40781;SDS011;26493;51.938;7.626;2023-03-12T16:12:48;24.50;;;16.35;;
40781;SDS011;26493;51.938;7.626;2023-03-12T16:15:16;27.50;;;17.60;;
40781;SDS011;26493;51.938;7.626;2023-03-12T16:17:43;32.45;;;16.02;;
40781;SDS011;26493;51.938;7.626;2023-03-12T16:20:10;26.85;;;15.00;;
40781;SDS011;26493;51.938;7.626;2023-03-12T16:22:37;27.27;;;15.02;;
40781;SDS011;26493;51.938;7.626;2023-03-12T16:25:03;26.88;;;15.60;;
40781;SDS011;26493;51.938;7.626;2023-03-12T16:27:30;28.98;;;16.02;;
40781;SDS011;26493;51.938;7.626;2023-03-12T16:29:58;27.30;;;16.20;;
40781;SDS011;26493;51.938;7.626;2023-03-12T16:32:24;28.20;;;16.00;;
40781;SDS011;26493;51.938;7.626;2023-03-12T16:34:50;33.42;;;17.48;;
40781;SDS011;26493;51.938;7.626;2023-03-12T16:37:17;26.40;;;17.65;;
40781;SDS011;26493;51.938;7.626;2023-03-12T16:39:43;30.35;;;16.75;;
40781;SDS011;26493;51.938;7.626;2023-03-12T16:42:13;26.05;;;16.52;;
40781;SDS011;26493;51.938;7.626;2023-03-12T16:47:10;28.63;;;17.40;;
40781;SDS011;26493;51.938;7.626;2023-03-12T16:49:36;29.42;;;17.65;;
40781;SDS011;26493;51.938;7.626;2023-03-12T16:52:16;31.70;;;19.00;;
40781;SDS011;26493;51.938;7.626;2023-03-12T16:54:42;32.55;;;18.15;;